sensor_id;sensor_type;location;lat;lon;timestamp;P1;durP1;ratioP1;P2;durP2;ratioP2
38338;SDS011;37117;50.050;19.924;2023-03-01T00:01:25;70.60;;;39.10;;
38338;SDS011;37117;50.050;19.924;2023-03-01T00:03:56;63.80;;;34.90;;
38338;SDS011;37117;50.050;19.924;2023-03-01T00:06:28;60.80;;;41.10;;
38338;SDS011;37117;50.050;19.924;2023-03-01T00:08:59;65.80;;;31.60;;
38338;SDS011;37117;50.050;19.924;2023-03-01T00:11:30;64.00;;;32.80;;
38338;SDS011;37117;50.050;19.924;2023-03-01T00:14:02;58.80;;;29.40;;
38338;SDS011;37117;50.050;19.924;2023-03-01T00:16:37;57.60;;;30.10;;
38338;SDS011;37117;50.050;19.924;2023-03-01T00:19:10;50.30;;;28.50;;
38338;SDS011;37117;50.050;19.924;2023-03-01T00:21:42;63.40;;;36.10;;
38338;SDS011;37117;50.050;19.924;2023-03-01T00:24:13;64.90;;;32.90;;
38338;SDS011;37117;50.050;19.924;2023-03-01T00:26:45;58.60;;;33.20;;
38338;SDS011;37117;50.050;19.924;2023-03-01T00:29:15;59.70;;;33.00;;
38338;SDS011;37117;50.050;19.924;2023-03-01T00:31:47;48.90;;;29.30;;
38338;SDS011;37117;50.050;19.924;2023-03-01T00:34:18;57.30;;;30.80;;
38338;SDS011;37117;50.050;19.924;2023-03-01T00:36:48;54.00;;;31.80;;
38338;SDS011;37117;50.050;19.924;2023-03-01T00:39:19;57.60;;;31.70;;
38338;SDS011;37117;50.050;19.924;2023-03-01T00:41:50;55.00;;;30.70;;
38338;SDS011;37117;50.050;19.924;2023-03-01T00:44:21;49.90;;;29.80;;
38338;SDS011;37117;50.050;19.924;2023-03-01T00:46:52;59.00;;;30.00;;
38338;SDS011;37117;50.050;19.924;2023-03-01T00:49:22;54.50;;;30.90;;
38338;SDS011;37117;50.050;19.924;2023-03-01T00:51:58;51.50;;;27.90;;
38338;SDS011;37117;50.050;19.924;2023-03-01T00:54:28;58.70;;;29.50;;
38338;SDS011;37117;50.050;19.924;2023-03-01T00:56:59;54.70;;;31.10;;
38338;SDS011;37117;50.050;19.924;2023-03-01T00:59:30;51.20;;;29.10;;
38338;SDS011;37117;50.050;19.924;2023-03-01T01:02:01;54.90;;;32.10;;
38338;SDS011;37117;50.050;19.924;2023-03-01T01:04:32;52.10;;;31.80;;
38338;SDS011;37117;50.050;19.924;2023-03-01T01:07:03;50.00;;;29.80;;
38338;SDS011;37117;50.050;19.924;2023-03-01T01:09:35;50.90;;;29.60;;
38338;SDS011;37117;50.050;19.924;2023-03-01T01:12:06;61.90;;;30.40;;
38338;SDS011;37117;50.050;19.924;2023-03-01T01:14:37;51.40;;;28.20;;
38338;SDS011;37117;50.050;19.924;2023-03-01T01:17:08;50.30;;;27.60;;
38338;SDS011;37117;50.050;19.924;2023-03-01T01:19:39;41.30;;;25.60;;
38338;SDS011;37117;50.050;19.924;2023-03-01T01:22:10;45.00;;;26.20;;
38338;SDS011;37117;50.050;19.924;2023-03-01T01:24:41;36.00;;;22.50;;
38338;SDS011;37117;50.050;19.924;2023-03-01T01:27:12;37.00;;;20.50;;
38338;SDS011;37117;50.050;19.924;2023-03-01T01:29:43;43.10;;;22.10;;
38338;SDS011;37117;50.050;19.924;2023-03-01T01:32:14;44.30;;;25.40;;
38338;SDS011;37117;50.050;19.924;2023-03-01T01:34:45;40.90;;;22.30;;
38338;SDS011;37117;50.050;19.924;2023-03-01T01:37:18;40.10;;;23.00;;
38338;SDS011;37117;50.050;19.924;2023-03-01T01:39:49;43.10;;;25.00;;
38338;SDS011;37117;50.050;19.924;2023-03-01T01:42:20;43.30;;;23.80;;
38338;SDS011;37117;50.050;19.924;2023-03-01T01:47:35;37.20;;;21.50;;
38338;SDS011;37117;50.050;19.924;2023-03-01T01:50:08;37.10;;;20.70;;
38338;SDS011;37117;50.050;19.924;2023-03-01T01:52:45;41.50;;;24.70;;
38338;SDS011;37117;50.050;19.924;2023-03-01T01:55:18;43.10;;;24.70;;
38338;SDS011;37117;50.050;19.924;2023-03-01T01:57:51;41.40;;;22.20;;
38338;SDS011;37117;50.050;19.924;2023-03-01T02:00:24;40.00;;;22.90;;
38338;SDS011;37117;50.050;19.924;2023-03-01T02:02:56;38.30;;;22.80;;
38338;SDS011;37117;50.050;19.924;2023-03-01T02:05:33;37.80;;;22.10;;
38338;SDS011;37117;50.050;19.924;2023-03-01T02:08:07;38.20;;;20.50;;
38338;SDS011;37117;50.050;19.924;2023-03-01T02:10:39;44.80;;;25.80;;
38338;SDS011;37117;50.050;19.924;2023-03-01T02:13:11;44.00;;;24.20;;
38338;SDS011;37117;50.050;19.924;2023-03-01T02:15:42;44.20;;;24.00;;
38338;SDS011;37117;50.050;19.924;2023-03-01T02:18:14;53.90;;;30.00;;
38338;SDS011;37117;50.050;19.924;2023-03-01T02:20:50;53.40;;;29.60;;
38338;SDS011;37117;50.050;19.924;2023-03-01T02:23:26;44.70;;;27.70;;
38338;SDS011;37117;50.050;19.924;2023-03-01T02:25:58;48.60;;;28.00;;
38338;SDS011;37117;50.050;19.924;2023-03-01T02:28:32;55.90;;;28.90;;
38338;SDS011;37117;50.050;19.924;2023-03-01T02:31:04;54.20;;;29.30;;
38338;SDS011;37117;50.050;19.924;2023-03-01T02:33:53;45.90;;;27.60;;
38338;SDS011;37117;50.050;19.924;2023-03-01T02:36:26;48.50;;;25.40;;
38338;SDS011;37117;50.050;19.924;2023-03-01T02:38:59;45.30;;;25.60;;
38338;SDS011;37117;50.050;19.924;2023-03-01T02:41:32;44.90;;;27.40;;
38338;SDS011;37117;50.050;19.924;2023-03-01T02:46:41;61.10;;;33.60;;
38338;SDS011;37117;50.050;19.924;2023-03-01T02:49:33;63.00;;;32.30;;
38338;SDS011;37117;50.050;19.924;2023-03-01T02:52:20;54.10;;;30.40;;
38338;SDS011;37117;50.050;19.924;2023-03-01T02:54:52;72.20;;;36.90;;
38338;SDS011;37117;50.050;19.924;2023-03-01T02:57:25;68.30;;;38.50;;
38338;SDS011;37117;50.050;19.924;2023-03-01T02:59:58;74.20;;;40.10;;
38338;SDS011;37117;50.050;19.924;2023-03-01T03:02:30;82.20;;;41.50;;
38338;SDS011;37117;50.050;19.924;2023-03-01T03:05:12;77.80;;;43.80;;
38338;SDS011;37117;50.050;19.924;2023-03-01T03:07:44;73.20;;;42.10;;
38338;SDS011;37117;50.050;19.924;2023-03-01T03:10:17;83.70;;;43.10;;
38338;SDS011;37117;50.050;19.924;2023-03-01T03:12:50;77.00;;;41.30;;
38338;SDS011;37117;50.050;19.924;2023-03-01T03:15:22;87.00;;;45.40;;
38338;SDS011;37117;50.050;19.924;2023-03-01T03:17:53;78.20;;;41.70;;
38338;SDS011;37117;50.050;19.924;2023-03-01T03:20:25;64.40;;;37.10;;
38338;SDS011;37117;50.050;19.924;2023-03-01T03:22:56;70.40;;;40.00;;
38338;SDS011;37117;50.050;19.924;2023-03-01T03:25:28;58.40;;;32.40;;
38338;SDS011;37117;50.050;19.924;2023-03-01T03:27:59;54.10;;;32.70;;
38338;SDS011;37117;50.050;19.924;2023-03-01T03:30:30;58.40;;;33.20;;
38338;SDS011;37117;50.050;19.924;2023-03-01T03:33:01;61.80;;;30.40;;
38338;SDS011;37117;50.050;19.924;2023-03-01T03:35:33;57.90;;;30.70;;
38338;SDS011;37117;50.050;19.924;2023-03-01T03:38:06;54.40;;;27.00;;
38338;SDS011;37117;50.050;19.924;2023-03-01T03:40:39;51.10;;;27.80;;
38338;SDS011;37117;50.050;19.924;2023-03-01T03:43:11;48.40;;;28.30;;
38338;SDS011;37117;50.050;19.924;2023-03-01T03:45:43;51.30;;;27.20;;
38338;SDS011;37117;50.050;19.924;2023-03-01T03:48:14;47.60;;;27.00;;
38338;SDS011;37117;50.050;19.924;2023-03-01T03:50:48;48.20;;;27.70;;
38338;SDS011;37117;50.050;19.924;2023-03-01T03:53:20;57.50;;;29.50;;
38338;SDS011;37117;50.050;19.924;2023-03-01T03:55:52;52.70;;;26.70;;
38338;SDS011;37117;50.050;19.924;2023-03-01T03:58:22;51.50;;;29.10;;
38338;SDS011;37117;50.050;19.924;2023-03-01T04:00:55;52.90;;;30.60;;
38338;SDS011;37117;50.050;19.924;2023-03-01T04:03:26;57.10;;;29.60;;
38338;SDS011;37117;50.050;19.924;2023-03-01T04:05:58;50.80;;;27.80;;
38338;SDS011;37117;50.050;19.924;2023-03-01T04:08:29;56.80;;;31.10;;
38338;SDS011;37117;50.050;19.924;2023-03-01T04:11:01;57.90;;;31.00;;
38338;SDS011;37117;50.050;19.924;2023-03-01T04:13:54;49.30;;;27.50;;
38338;SDS011;37117;50.050;19.924;2023-03-01T04:16:25;51.50;;;29.60;;
38338;SDS011;37117;50.050;19.924;2023-03-01T04:18:57;56.80;;;29.80;;
38338;SDS011;37117;50.050;19.924;2023-03-01T04:21:30;48.90;;;28.00;;
38338;SDS011;37117;50.050;19.924;2023-03-01T04:24:01;48.60;;;26.30;;
38338;SDS011;37117;50.050;19.924;2023-03-01T04:26:33;56.80;;;28.20;;
38338;SDS011;37117;50.050;19.924;2023-03-01T04:29:04;56.70;;;29.50;;
38338;SDS011;37117;50.050;19.924;2023-03-01T04:31:35;63.20;;;29.80;;
38338;SDS011;37117;50.050;19.924;2023-03-01T04:34:06;54.40;;;31.70;;
38338;SDS011;37117;50.050;19.924;2023-03-01T04:36:37;58.30;;;32.40;;
38338;SDS011;37117;50.050;19.924;2023-03-01T04:39:09;52.50;;;30.20;;
38338;SDS011;37117;50.050;19.924;2023-03-01T04:41:41;57.30;;;31.70;;
38338;SDS011;37117;50.050;19.924;2023-03-01T04:44:14;59.70;;;32.70;;
38338;SDS011;37117;50.050;19.924;2023-03-01T04:46:45;59.80;;;32.60;;
38338;SDS011;37117;50.050;19.924;2023-03-01T04:49:15;60.60;;;35.60;;
38338;SDS011;37117;50.050;19.924;2023-03-01T04:51:47;49.30;;;28.50;;
38338;SDS011;37117;50.050;19.924;2023-03-01T04:54:18;57.40;;;31.50;;
38338;SDS011;37117;50.050;19.924;2023-03-01T04:56:49;53.80;;;32.10;;
38338;SDS011;37117;50.050;19.924;2023-03-01T04:59:19;52.80;;;31.90;;
38338;SDS011;37117;50.050;19.924;2023-03-01T05:01:52;62.60;;;30.70;;
38338;SDS011;37117;50.050;19.924;2023-03-01T05:04:24;56.80;;;33.60;;
38338;SDS011;37117;50.050;19.924;2023-03-01T05:06:56;55.50;;;31.10;;
38338;SDS011;37117;50.050;19.924;2023-03-01T05:09:28;58.30;;;33.10;;
38338;SDS011;37117;50.050;19.924;2023-03-01T05:11:59;56.90;;;34.60;;
38338;SDS011;37117;50.050;19.924;2023-03-01T05:14:29;53.50;;;30.70;;
38338;SDS011;37117;50.050;19.924;2023-03-01T05:17:01;62.50;;;33.70;;
38338;SDS011;37117;50.050;19.924;2023-03-01T05:19:34;55.50;;;30.80;;
38338;SDS011;37117;50.050;19.924;2023-03-01T05:22:05;54.20;;;31.80;;
38338;SDS011;37117;50.050;19.924;2023-03-01T05:24:35;65.20;;;36.40;;
38338;SDS011;37117;50.050;19.924;2023-03-01T05:27:08;69.50;;;34.50;;
38338;SDS011;37117;50.050;19.924;2023-03-01T05:29:39;64.80;;;33.30;;
38338;SDS011;37117;50.050;19.924;2023-03-01T05:32:10;51.80;;;30.20;;
38338;SDS011;37117;50.050;19.924;2023-03-01T05:34:45;62.10;;;34.00;;
38338;SDS011;37117;50.050;19.924;2023-03-01T05:37:19;63.60;;;39.80;;
38338;SDS011;37117;50.050;19.924;2023-03-01T05:39:50;66.80;;;35.50;;
38338;SDS011;37117;50.050;19.924;2023-03-01T05:42:21;85.90;;;44.10;;
38338;SDS011;37117;50.050;19.924;2023-03-01T05:44:52;72.40;;;40.30;;
38338;SDS011;37117;50.050;19.924;2023-03-01T05:47:23;68.30;;;38.10;;
38338;SDS011;37117;50.050;19.924;2023-03-01T05:49:53;69.10;;;39.80;;
38338;SDS011;37117;50.050;19.924;2023-03-01T05:52:24;71.10;;;39.20;;
38338;SDS011;37117;50.050;19.924;2023-03-01T05:54:55;81.00;;;41.70;;
38338;SDS011;37117;50.050;19.924;2023-03-01T05:57:26;72.90;;;43.10;;
38338;SDS011;37117;50.050;19.924;2023-03-01T05:59:58;76.00;;;38.50;;
38338;SDS011;37117;50.050;19.924;2023-03-01T06:02:29;70.10;;;40.10;;
38338;SDS011;37117;50.050;19.924;2023-03-01T06:05:00;68.90;;;39.60;;
38338;SDS011;37117;50.050;19.924;2023-03-01T06:07:32;74.60;;;44.30;;
38338;SDS011;37117;50.050;19.924;2023-03-01T06:10:03;68.70;;;39.80;;
38338;SDS011;37117;50.050;19.924;2023-03-01T06:12:35;76.20;;;43.30;;
38338;SDS011;37117;50.050;19.924;2023-03-01T06:15:07;79.90;;;45.10;;
38338;SDS011;37117;50.050;19.924;2023-03-01T06:17:40;74.60;;;41.00;;
38338;SDS011;37117;50.050;19.924;2023-03-01T06:20:12;73.20;;;39.60;;
38338;SDS011;37117;50.050;19.924;2023-03-01T06:22:44;79.90;;;43.10;;
38338;SDS011;37117;50.050;19.924;2023-03-01T06:25:16;77.80;;;42.20;;
38338;SDS011;37117;50.050;19.924;2023-03-01T06:27:48;74.10;;;40.70;;
38338;SDS011;37117;50.050;19.924;2023-03-01T06:30:20;79.00;;;45.80;;
38338;SDS011;37117;50.050;19.924;2023-03-01T06:32:51;75.70;;;41.10;;
38338;SDS011;37117;50.050;19.924;2023-03-01T06:35:22;79.80;;;44.20;;
38338;SDS011;37117;50.050;19.924;2023-03-01T06:37:53;97.70;;;50.90;;
38338;SDS011;37117;50.050;19.924;2023-03-01T06:40:24;99.60;;;54.50;;
38338;SDS011;37117;50.050;19.924;2023-03-01T06:42:55;95.80;;;52.90;;
38338;SDS011;37117;50.050;19.924;2023-03-01T06:45:26;99.40;;;54.30;;
38338;SDS011;37117;50.050;19.924;2023-03-01T06:48:04;92.10;;;52.10;;
38338;SDS011;37117;50.050;19.924;2023-03-01T06:50:35;98.80;;;55.70;;
38338;SDS011;37117;50.050;19.924;2023-03-01T06:53:07;94.10;;;51.30;;
38338;SDS011;37117;50.050;19.924;2023-03-01T06:55:38;100.80;;;54.70;;
38338;SDS011;37117;50.050;19.924;2023-03-01T06:58:09;108.70;;;56.40;;
38338;SDS011;37117;50.050;19.924;2023-03-01T07:00:41;93.90;;;51.60;;
38338;SDS011;37117;50.050;19.924;2023-03-01T07:03:13;98.10;;;50.60;;
38338;SDS011;37117;50.050;19.924;2023-03-01T07:05:44;97.30;;;54.30;;
38338;SDS011;37117;50.050;19.924;2023-03-01T07:08:15;95.10;;;52.60;;
38338;SDS011;37117;50.050;19.924;2023-03-01T07:10:46;91.90;;;48.70;;
38338;SDS011;37117;50.050;19.924;2023-03-01T07:13:19;96.60;;;52.40;;
38338;SDS011;37117;50.050;19.924;2023-03-01T07:15:49;84.40;;;45.60;;
38338;SDS011;37117;50.050;19.924;2023-03-01T07:18:20;76.90;;;43.60;;
38338;SDS011;37117;50.050;19.924;2023-03-01T07:20:52;88.20;;;46.40;;
38338;SDS011;37117;50.050;19.924;2023-03-01T07:23:23;82.00;;;47.70;;
38338;SDS011;37117;50.050;19.924;2023-03-01T07:25:54;85.20;;;48.20;;
38338;SDS011;37117;50.050;19.924;2023-03-01T07:28:26;82.10;;;45.90;;
38338;SDS011;37117;50.050;19.924;2023-03-01T07:31:01;80.70;;;45.10;;
38338;SDS011;37117;50.050;19.924;2023-03-01T07:33:32;78.20;;;44.10;;
38338;SDS011;37117;50.050;19.924;2023-03-01T07:36:04;82.60;;;48.50;;
38338;SDS011;37117;50.050;19.924;2023-03-01T07:38:35;87.30;;;45.90;;
38338;SDS011;37117;50.050;19.924;2023-03-01T07:41:06;79.10;;;45.20;;
38338;SDS011;37117;50.050;19.924;2023-03-01T07:43:37;84.50;;;45.30;;
38338;SDS011;37117;50.050;19.924;2023-03-01T07:46:09;80.60;;;45.30;;
38338;SDS011;37117;50.050;19.924;2023-03-01T07:48:40;88.40;;;48.30;;
38338;SDS011;37117;50.050;19.924;2023-03-01T07:51:11;81.80;;;47.30;;
38338;SDS011;37117;50.050;19.924;2023-03-01T07:53:45;83.20;;;48.30;;
38338;SDS011;37117;50.050;19.924;2023-03-01T07:56:15;83.90;;;47.80;;
38338;SDS011;37117;50.050;19.924;2023-03-01T07:58:47;90.50;;;48.90;;
38338;SDS011;37117;50.050;19.924;2023-03-01T08:01:19;89.40;;;49.40;;
38338;SDS011;37117;50.050;19.924;2023-03-01T08:03:51;91.30;;;49.70;;
38338;SDS011;37117;50.050;19.924;2023-03-01T08:06:22;92.60;;;51.60;;
38338;SDS011;37117;50.050;19.924;2023-03-01T08:08:53;86.60;;;51.40;;
38338;SDS011;37117;50.050;19.924;2023-03-01T08:11:25;89.90;;;51.90;;
38338;SDS011;37117;50.050;19.924;2023-03-01T08:13:57;100.90;;;51.60;;
38338;SDS011;37117;50.050;19.924;2023-03-01T08:16:28;107.40;;;54.10;;
38338;SDS011;37117;50.050;19.924;2023-03-01T08:19:04;89.40;;;46.20;;
38338;SDS011;37117;50.050;19.924;2023-03-01T08:21:35;80.30;;;46.30;;
38338;SDS011;37117;50.050;19.924;2023-03-01T08:24:07;83.50;;;49.40;;
38338;SDS011;37117;50.050;19.924;2023-03-01T08:26:39;84.30;;;48.20;;
38338;SDS011;37117;50.050;19.924;2023-03-01T08:29:11;87.10;;;49.10;;
38338;SDS011;37117;50.050;19.924;2023-03-01T08:31:41;63.20;;;35.70;;
38338;SDS011;37117;50.050;19.924;2023-03-01T08:34:13;54.10;;;31.90;;
38338;SDS011;37117;50.050;19.924;2023-03-01T08:36:45;56.60;;;34.30;;
38338;SDS011;37117;50.050;19.924;2023-03-01T08:39:18;55.40;;;32.90;;
38338;SDS011;37117;50.050;19.924;2023-03-01T08:41:50;65.70;;;37.50;;
38338;SDS011;37117;50.050;19.924;2023-03-01T08:44:21;58.40;;;37.40;;
38338;SDS011;37117;50.050;19.924;2023-03-01T08:46:52;71.50;;;38.60;;
38338;SDS011;37117;50.050;19.924;2023-03-01T08:49:25;55.90;;;30.80;;
38338;SDS011;37117;50.050;19.924;2023-03-01T08:51:56;51.50;;;30.80;;
38338;SDS011;37117;50.050;19.924;2023-03-01T08:54:27;51.90;;;32.30;;
38338;SDS011;37117;50.050;19.924;2023-03-01T08:56:58;51.50;;;30.80;;
38338;SDS011;37117;50.050;19.924;2023-03-01T08:59:31;54.10;;;32.00;;
38338;SDS011;37117;50.050;19.924;2023-03-01T09:02:08;48.00;;;29.30;;
38338;SDS011;37117;50.050;19.924;2023-03-01T09:04:42;46.30;;;30.00;;
38338;SDS011;37117;50.050;19.924;2023-03-01T09:07:13;49.60;;;28.90;;
38338;SDS011;37117;50.050;19.924;2023-03-01T09:09:44;46.80;;;29.20;;
38338;SDS011;37117;50.050;19.924;2023-03-01T09:12:15;43.60;;;28.70;;
38338;SDS011;37117;50.050;19.924;2023-03-01T09:14:47;42.40;;;26.20;;
38338;SDS011;37117;50.050;19.924;2023-03-01T09:17:19;36.50;;;23.80;;
38338;SDS011;37117;50.050;19.924;2023-03-01T09:19:51;43.20;;;24.70;;
38338;SDS011;37117;50.050;19.924;2023-03-01T09:22:22;37.30;;;24.50;;
38338;SDS011;37117;50.050;19.924;2023-03-01T09:24:54;37.20;;;23.10;;
38338;SDS011;37117;50.050;19.924;2023-03-01T09:27:25;43.00;;;23.80;;
38338;SDS011;37117;50.050;19.924;2023-03-01T09:29:57;44.20;;;26.70;;
38338;SDS011;37117;50.050;19.924;2023-03-01T09:32:28;38.80;;;22.50;;
38338;SDS011;37117;50.050;19.924;2023-03-01T09:35:00;46.50;;;27.70;;
38338;SDS011;37117;50.050;19.924;2023-03-01T09:37:34;42.70;;;26.10;;
38338;SDS011;37117;50.050;19.924;2023-03-01T09:40:08;44.90;;;29.40;;
38338;SDS011;37117;50.050;19.924;2023-03-01T09:42:48;43.70;;;26.90;;
38338;SDS011;37117;50.050;19.924;2023-03-01T09:45:23;50.90;;;30.80;;
38338;SDS011;37117;50.050;19.924;2023-03-01T09:47:55;48.40;;;30.10;;
38338;SDS011;37117;50.050;19.924;2023-03-01T09:50:28;48.50;;;29.50;;
38338;SDS011;37117;50.050;19.924;2023-03-01T09:53:02;52.00;;;31.80;;
38338;SDS011;37117;50.050;19.924;2023-03-01T09:55:37;47.80;;;28.70;;
38338;SDS011;37117;50.050;19.924;2023-03-01T09:58:18;54.60;;;29.10;;
38338;SDS011;37117;50.050;19.924;2023-03-01T10:00:56;49.60;;;29.30;;
38338;SDS011;37117;50.050;19.924;2023-03-01T10:03:30;49.70;;;29.50;;
38338;SDS011;37117;50.050;19.924;2023-03-01T10:06:04;50.60;;;29.90;;
38338;SDS011;37117;50.050;19.924;2023-03-01T10:08:46;46.30;;;29.60;;
38338;SDS011;37117;50.050;19.924;2023-03-01T10:11:21;54.30;;;30.60;;
38338;SDS011;37117;50.050;19.924;2023-03-01T10:13:56;47.90;;;28.60;;
38338;SDS011;37117;50.050;19.924;2023-03-01T10:16:32;45.80;;;29.50;;
38338;SDS011;37117;50.050;19.924;2023-03-01T10:19:04;46.80;;;29.90;;
38338;SDS011;37117;50.050;19.924;2023-03-01T10:21:37;44.70;;;28.90;;
38338;SDS011;37117;50.050;19.924;2023-03-01T10:24:12;47.90;;;30.20;;
38338;SDS011;37117;50.050;19.924;2023-03-01T10:26:50;49.80;;;29.30;;
38338;SDS011;37117;50.050;19.924;2023-03-01T10:29:22;45.60;;;30.30;;
38338;SDS011;37117;50.050;19.924;2023-03-01T10:31:55;50.20;;;29.60;;
38338;SDS011;37117;50.050;19.924;2023-03-01T10:34:28;49.00;;;30.10;;
38338;SDS011;37117;50.050;19.924;2023-03-01T10:37:01;45.80;;;28.40;;
38338;SDS011;37117;50.050;19.924;2023-03-01T10:39:32;40.50;;;26.60;;
38338;SDS011;37117;50.050;19.924;2023-03-01T10:42:05;49.00;;;25.40;;
38338;SDS011;37117;50.050;19.924;2023-03-01T10:44:41;37.60;;;24.20;;
38338;SDS011;37117;50.050;19.924;2023-03-01T10:47:14;40.10;;;23.90;;
38338;SDS011;37117;50.050;19.924;2023-03-01T10:50:01;33.80;;;20.90;;
38338;SDS011;37117;50.050;19.924;2023-03-01T10:52:34;40.60;;;22.00;;
38338;SDS011;37117;50.050;19.924;2023-03-01T10:58:07;40.10;;;23.80;;
38338;SDS011;37117;50.050;19.924;2023-03-01T11:00:46;36.50;;;23.30;;
38338;SDS011;37117;50.050;19.924;2023-03-01T11:03:19;35.30;;;23.30;;
38338;SDS011;37117;50.050;19.924;2023-03-01T11:05:52;34.70;;;23.00;;
38338;SDS011;37117;50.050;19.924;2023-03-01T11:08:40;31.20;;;20.20;;
38338;SDS011;37117;50.050;19.924;2023-03-01T11:11:22;40.60;;;20.00;;
38338;SDS011;37117;50.050;19.924;2023-03-01T11:13:55;35.40;;;20.50;;
38338;SDS011;37117;50.050;19.924;2023-03-01T11:16:27;29.20;;;20.20;;
38338;SDS011;37117;50.050;19.924;2023-03-01T11:19:01;31.30;;;20.00;;
38338;SDS011;37117;50.050;19.924;2023-03-01T11:21:32;30.10;;;19.00;;
38338;SDS011;37117;50.050;19.924;2023-03-01T11:24:05;32.50;;;19.20;;
38338;SDS011;37117;50.050;19.924;2023-03-01T11:26:37;27.70;;;18.60;;
38338;SDS011;37117;50.050;19.924;2023-03-01T11:29:13;24.70;;;15.80;;
38338;SDS011;37117;50.050;19.924;2023-03-01T11:31:47;29.80;;;17.90;;
38338;SDS011;37117;50.050;19.924;2023-03-01T11:34:28;29.00;;;17.90;;
38338;SDS011;37117;50.050;19.924;2023-03-01T11:37:03;29.00;;;16.80;;
38338;SDS011;37117;50.050;19.924;2023-03-01T11:39:42;26.40;;;16.30;;
38338;SDS011;37117;50.050;19.924;2023-03-01T11:42:15;31.70;;;17.10;;
38338;SDS011;37117;50.050;19.924;2023-03-01T11:44:49;25.60;;;17.20;;
38338;SDS011;37117;50.050;19.924;2023-03-01T11:47:25;26.40;;;16.20;;
38338;SDS011;37117;50.050;19.924;2023-03-01T11:50:08;27.40;;;16.20;;
38338;SDS011;37117;50.050;19.924;2023-03-01T11:52:45;28.90;;;18.00;;
38338;SDS011;37117;50.050;19.924;2023-03-01T11:58:11;30.20;;;17.20;;
38338;SDS011;37117;50.050;19.924;2023-03-01T12:00:46;30.10;;;16.10;;
38338;SDS011;37117;50.050;19.924;2023-03-01T12:03:25;31.50;;;18.40;;
38338;SDS011;37117;50.050;19.924;2023-03-01T12:08:42;30.40;;;18.00;;
38338;SDS011;37117;50.050;19.924;2023-03-01T12:11:20;30.50;;;17.90;;
38338;SDS011;37117;50.050;19.924;2023-03-01T12:14:02;28.60;;;17.60;;
38338;SDS011;37117;50.050;19.924;2023-03-01T12:16:44;27.60;;;18.10;;
38338;SDS011;37117;50.050;19.924;2023-03-01T12:19:25;42.00;;;20.30;;
38338;SDS011;37117;50.050;19.924;2023-03-01T12:22:01;34.00;;;19.80;;
38338;SDS011;37117;50.050;19.924;2023-03-01T12:24:43;33.90;;;21.40;;
38338;SDS011;37117;50.050;19.924;2023-03-01T12:27:24;37.60;;;24.60;;
38338;SDS011;37117;50.050;19.924;2023-03-01T12:30:02;47.70;;;24.10;;
38338;SDS011;37117;50.050;19.924;2023-03-01T12:32:38;36.50;;;22.10;;
38338;SDS011;37117;50.050;19.924;2023-03-01T12:35:19;38.40;;;22.90;;
38338;SDS011;37117;50.050;19.924;2023-03-01T12:37:58;35.00;;;22.60;;
38338;SDS011;37117;50.050;19.924;2023-03-01T12:40:36;35.10;;;22.50;;
38338;SDS011;37117;50.050;19.924;2023-03-01T12:43:19;39.80;;;24.00;;
38338;SDS011;37117;50.050;19.924;2023-03-01T12:45:57;39.80;;;25.80;;
38338;SDS011;37117;50.050;19.924;2023-03-01T12:48:34;36.50;;;23.80;;
38338;SDS011;37117;50.050;19.924;2023-03-01T12:51:07;35.00;;;21.20;;
38338;SDS011;37117;50.050;19.924;2023-03-01T12:53:41;32.80;;;19.70;;
38338;SDS011;37117;50.050;19.924;2023-03-01T12:56:15;29.70;;;20.30;;
38338;SDS011;37117;50.050;19.924;2023-03-01T12:58:50;29.90;;;20.30;;
38338;SDS011;37117;50.050;19.924;2023-03-01T13:01:30;29.40;;;18.00;;
38338;SDS011;37117;50.050;19.924;2023-03-01T13:04:05;24.90;;;16.00;;
38338;SDS011;37117;50.050;19.924;2023-03-01T13:06:41;24.80;;;15.40;;
38338;SDS011;37117;50.050;19.924;2023-03-01T13:09:19;25.40;;;16.20;;
38338;SDS011;37117;50.050;19.924;2023-03-01T13:11:53;26.30;;;15.50;;
38338;SDS011;37117;50.050;19.924;2023-03-01T13:14:45;23.10;;;15.00;;
38338;SDS011;37117;50.050;19.924;2023-03-01T13:20:11;27.10;;;17.50;;
38338;SDS011;37117;50.050;19.924;2023-03-01T13:22:43;26.70;;;17.70;;
38338;SDS011;37117;50.050;19.924;2023-03-01T13:25:23;26.70;;;16.90;;
38338;SDS011;37117;50.050;19.924;2023-03-01T13:30:51;25.00;;;14.90;;
38338;SDS011;37117;50.050;19.924;2023-03-01T13:33:38;21.10;;;13.30;;
38338;SDS011;37117;50.050;19.924;2023-03-01T13:36:11;24.10;;;15.10;;
38338;SDS011;37117;50.050;19.924;2023-03-01T13:38:46;17.60;;;11.50;;
38338;SDS011;37117;50.050;19.924;2023-03-01T13:41:47;19.10;;;13.90;;
38338;SDS011;37117;50.050;19.924;2023-03-01T13:44:15;22.20;;;14.10;;
38338;SDS011;37117;50.050;19.924;2023-03-01T13:46:50;22.80;;;15.10;;
38338;SDS011;37117;50.050;19.924;2023-03-01T13:49:23;22.40;;;15.30;;
38338;SDS011;37117;50.050;19.924;2023-03-01T13:52:04;23.70;;;16.00;;
38338;SDS011;37117;50.050;19.924;2023-03-01T13:54:36;24.90;;;16.00;;
38338;SDS011;37117;50.050;19.924;2023-03-01T13:57:12;22.20;;;15.60;;
38338;SDS011;37117;50.050;19.924;2023-03-01T13:59:49;28.00;;;18.10;;
38338;SDS011;37117;50.050;19.924;2023-03-01T14:02:21;25.60;;;18.40;;
38338;SDS011;37117;50.050;19.924;2023-03-01T14:04:57;26.10;;;17.50;;
38338;SDS011;37117;50.050;19.924;2023-03-01T14:07:28;25.10;;;18.70;;
38338;SDS011;37117;50.050;19.924;2023-03-01T14:10:00;27.90;;;17.80;;
38338;SDS011;37117;50.050;19.924;2023-03-01T14:12:36;23.60;;;17.20;;
38338;SDS011;37117;50.050;19.924;2023-03-01T14:15:10;24.40;;;17.60;;
38338;SDS011;37117;50.050;19.924;2023-03-01T14:18:00;27.30;;;17.00;;
38338;SDS011;37117;50.050;19.924;2023-03-01T14:20:37;23.60;;;16.70;;
38338;SDS011;37117;50.050;19.924;2023-03-01T14:23:10;25.60;;;17.80;;
38338;SDS011;37117;50.050;19.924;2023-03-01T14:25:47;28.60;;;18.30;;
38338;SDS011;37117;50.050;19.924;2023-03-01T14:28:20;27.00;;;18.70;;
38338;SDS011;37117;50.050;19.924;2023-03-01T14:30:52;24.80;;;17.10;;
38338;SDS011;37117;50.050;19.924;2023-03-01T14:33:24;24.80;;;17.10;;
38338;SDS011;37117;50.050;19.924;2023-03-01T14:35:56;25.10;;;17.20;;
38338;SDS011;37117;50.050;19.924;2023-03-01T14:38:33;23.10;;;16.60;;
38338;SDS011;37117;50.050;19.924;2023-03-01T14:41:07;27.00;;;16.80;;
38338;SDS011;37117;50.050;19.924;2023-03-01T14:43:39;26.20;;;16.80;;
38338;SDS011;37117;50.050;19.924;2023-03-01T14:46:18;25.00;;;16.90;;
38338;SDS011;37117;50.050;19.924;2023-03-01T14:48:51;25.20;;;16.50;;
38338;SDS011;37117;50.050;19.924;2023-03-01T14:51:21;22.20;;;14.60;;
38338;SDS011;37117;50.050;19.924;2023-03-01T14:53:53;24.40;;;15.80;;
38338;SDS011;37117;50.050;19.924;2023-03-01T14:56:24;19.60;;;14.40;;
38338;SDS011;37117;50.050;19.924;2023-03-01T14:58:57;22.00;;;14.60;;
38338;SDS011;37117;50.050;19.924;2023-03-01T15:01:28;23.90;;;13.10;;
38338;SDS011;37117;50.050;19.924;2023-03-01T15:04:00;22.30;;;14.60;;